Time;durP1;ratioP1;P1;durP2;ratioP2;P2;SDS_P1;SDS_P2;PMS_P1;PMS_P2;Temp;Humidity;BMP_temperature;BMP_pressure;BME280_temperature;BME280_humidity;BME280_pressure;Samples;Min_cycle;Max_cycle;Signal;HPM_P1;HPM_P2
2022/03/05 00:00:52;;;;;;;;;;;18.60;99.90;;;;;;5053705;28;19925;-61
2022/03/05 00:03:19;;;;;;;;;;;18.50;99.90;;;;;;5053981;28;19951;-62
2022/03/05 00:05:47;;;;;;;;;;;18.60;99.90;;;;;;5052002;28;19929;-60
2022/03/05 00:08:14;;;;;;;;;;;18.60;99.90;;;;;;5050653;28;19936;-61
2022/03/05 00:10:41;;;;;;;;;;;18.50;99.90;;;;;;5050280;28;20269;-62
2022/03/05 00:13:08;;;;;;;;;;;18.50;99.90;;;;;;5045026;28;19929;-62
2022/03/05 00:15:36;;;;;;;;;;;18.50;99.90;;;;;;5039525;28;19936;-63
2022/03/05 00:18:03;;;;;;;;;;;18.50;99.90;;;;;;5044513;28;20292;-61
2022/03/05 00:20:31;;;;;;;;;;;18.50;99.90;;;;;;5042881;28;19925;-60
2022/03/05 00:22:58;;;;;;;;;;;18.50;99.90;;;;;;5052854;28;20272;-64
2022/03/05 00:25:25;;;;;;;;;;;18.50;99.90;;;;;;5051865;28;19933;-63
2022/03/05 00:27:54;;;;;;;;;;;18.50;99.90;;;;;;5051497;28;19928;-61
2022/03/05 00:30:21;;;;;;;;;;;18.40;99.90;;;;;;5085889;28;19928;-63
2022/03/05 00:32:50;;;;;;;;;;;18.40;99.90;;;;;;5054245;28;19945;-65
2022/03/05 00:35:17;;;;;;;;;;;18.40;99.90;;;;;;5057884;28;19935;-62
2022/03/05 00:37:44;;;;;;;;;;;18.40;99.90;;;;;;5051418;28;19929;-60
2022/03/05 00:40:12;;;;;;;;;;;18.40;99.90;;;;;;5054707;28;19929;-62
2022/03/05 00:42:39;;;;;;;;;;;18.40;99.90;;;;;;5049699;28;19929;-62
2022/03/05 00:45:07;;;;;;;;;;;18.40;99.90;;;;;;5036004;28;20145;-60
2022/03/05 00:47:35;;;;;;;;;;;18.40;99.90;;;;;;5067494;28;19933;-61
2022/03/05 00:50:03;;;;;;;;;;;18.30;99.90;;;;;;5048122;28;19929;-61
2022/03/05 00:52:31;;;;;;;;;;;18.30;99.90;;;;;;5074168;28;20316;-62
2022/03/05 00:54:58;;;;;;;;;;;18.30;99.90;;;;;;5047597;28;19925;-62
2022/03/05 00:57:25;;;;;;;;;;;18.30;99.90;;;;;;5042859;28;19933;-60
2022/03/05 00:59:52;;;;;;;;;;;18.30;99.90;;;;;;5047841;28;19929;-62
2022/03/05 01:02:20;;;;;;;;;;;18.30;99.90;;;;;;5046114;28;19948;-62
2022/03/05 01:04:47;;;;;;;;;;;18.30;99.90;;;;;;5052011;28;19933;-62
2022/03/05 01:07:14;;;;;;;;;;;18.30;99.90;;;;;;5053391;28;19929;-63
2022/03/05 01:09:41;;;;;;;;;;;18.30;99.90;;;;;;5051412;28;19940;-63
2022/03/05 01:12:09;;;;;;;;;;;18.30;99.90;;;;;;5045517;28;20017;-63
2022/03/05 01:14:36;;;;;;;;;;;18.30;99.90;;;;;;5045958;28;19936;-63
2022/03/05 01:17:05;;;;;;;;;;;18.20;99.90;;;;;;5046533;28;20443;-62
2022/03/05 01:19:32;;;;;;;;;;;18.20;99.90;;;;;;5043769;28;19925;-62
2022/03/05 01:21:59;;;;;;;;;;;18.20;99.90;;;;;;5042001;28;20401;-63
2022/03/05 01:24:27;;;;;;;;;;;18.20;99.90;;;;;;5072153;28;19929;-62
2022/03/05 01:26:54;;;;;;;;;;;18.20;99.90;;;;;;5056525;28;19924;-63
2022/03/05 01:29:22;;;;;;;;;;;18.20;99.90;;;;;;5041977;28;19925;-63
2022/03/05 01:31:49;;;;;;;;;;;18.20;99.90;;;;;;5053442;28;19931;-63
2022/03/05 01:34:16;;;;;;;;;;;18.20;99.90;;;;;;5056008;28;19936;-61
2022/03/05 01:36:43;;;;;;;;;;;18.10;99.90;;;;;;5056113;28;19940;-59
2022/03/05 01:39:10;;;;;;;;;;;18.10;99.90;;;;;;5043422;28;20407;-62
2022/03/05 01:41:39;;;;;;;;;;;18.10;99.90;;;;;;5045520;28;20312;-62
2022/03/05 01:44:06;;;;;;;;;;;18.10;99.90;;;;;;5048281;28;20013;-60
2022/03/05 01:46:35;;;;;;;;;;;18.10;99.90;;;;;;5044478;28;19940;-62
2022/03/05 01:49:06;;;;;;;;;;;18.10;99.90;;;;;;5047183;28;19929;-63
2022/03/05 01:51:34;;;;;;;;;;;18.10;99.90;;;;;;5051486;28;19924;-62
2022/03/05 01:54:01;;;;;;;;;;;18.10;99.90;;;;;;5056342;28;19952;-63
2022/03/05 01:56:28;;;;;;;;;;;18.10;99.90;;;;;;5052004;28;20312;-63
2022/03/05 01:58:55;;;;;;;;;;;18.10;99.90;;;;;;5053488;28;19936;-63
2022/03/05 02:01:25;;;;;;;;;;;18.10;99.90;;;;;;5051863;28;20027;-63
2022/03/05 02:03:53;;;;;;;;;;;18.10;99.90;;;;;;5048868;28;19928;-61
2022/03/05 02:06:20;;;;;;;;;;;18.00;99.90;;;;;;5046784;28;19928;-61
2022/03/05 02:08:47;;;;;;;;;;;18.00;99.90;;;;;;5044465;28;19933;-62
2022/03/05 02:11:15;;;;;;;;;;;18.00;99.90;;;;;;5046913;28;19929;-61
2022/03/05 02:13:42;;;;;;;;;;;18.00;99.90;;;;;;5044349;28;19932;-62
2022/03/05 02:16:09;;;;;;;;;;;18.00;99.90;;;;;;5046968;28;19933;-60
2022/03/05 02:18:37;;;;;;;;;;;18.00;99.90;;;;;;5078385;28;19924;-62
2022/03/05 02:21:04;;;;;;;;;;;18.00;99.90;;;;;;5055175;28;19939;-62
2022/03/05 02:23:31;;;;;;;;;;;18.00;99.90;;;;;;5055898;28;19935;-61
2022/03/05 02:26:02;;;;;;;;;;;18.00;99.90;;;;;;5050219;28;20020;-62
2022/03/05 02:28:30;;;;;;;;;;;18.00;99.90;;;;;;5037200;28;19929;-64
2022/03/05 02:30:58;;;;;;;;;;;17.90;99.90;;;;;;5044745;28;19932;-64
2022/03/05 02:33:25;;;;;;;;;;;17.90;99.90;;;;;;5054687;28;20600;-61
2022/03/05 02:35:52;;;;;;;;;;;17.90;99.90;;;;;;5085300;28;19925;-63
2022/03/05 02:38:20;;;;;;;;;;;17.90;99.90;;;;;;5049556;28;19928;-63
2022/03/05 02:40:48;;;;;;;;;;;17.90;99.90;;;;;;5047132;28;20303;-61
2022/03/05 02:43:15;;;;;;;;;;;18.00;99.90;;;;;;5044236;28;20407;-63
2022/03/05 02:45:42;;;;;;;;;;;17.90;99.90;;;;;;5038949;28;19925;-62
2022/03/05 02:48:13;;;;;;;;;;;17.90;99.90;;;;;;5055785;28;20345;-63
2022/03/05 02:50:41;;;;;;;;;;;17.90;99.90;;;;;;5049008;28;19936;-63
2022/03/05 02:53:08;;;;;;;;;;;17.90;99.90;;;;;;5048022;28;19928;-64
2022/03/05 02:55:36;;;;;;;;;;;17.90;99.90;;;;;;5045438;28;19940;-64
2022/03/05 02:58:03;;;;;;;;;;;17.90;99.90;;;;;;5052283;28;19925;-64
2022/03/05 03:00:31;;;;;;;;;;;17.90;99.90;;;;;;5055433;28;19939;-63
2022/03/05 03:02:58;;;;;;;;;;;17.80;99.90;;;;;;5038069;28;19925;-63
2022/03/05 03:05:26;;;;;;;;;;;17.80;99.90;;;;;;5041998;28;20408;-62
2022/03/05 03:07:53;;;;;;;;;;;17.90;99.90;;;;;;5049864;28;20364;-61
2022/03/05 03:10:21;;;;;;;;;;;17.80;99.90;;;;;;5046383;28;19936;-64
2022/03/05 03:12:48;;;;;;;;;;;17.80;99.90;;;;;;5046339;28;19955;-63
2022/03/05 03:15:15;;;;;;;;;;;17.80;99.90;;;;;;5044752;28;20374;-60
2022/03/05 03:17:44;;;;;;;;;;;17.80;99.90;;;;;;5046562;28;19928;-62
2022/03/05 03:20:12;;;;;;;;;;;17.80;99.90;;;;;;5048677;28;19936;-62
2022/03/05 03:22:39;;;;;;;;;;;17.80;99.90;;;;;;5059414;28;19925;-62
2022/03/05 03:25:07;;;;;;;;;;;17.80;99.90;;;;;;5055583;28;20395;-62
2022/03/05 03:27:35;;;;;;;;;;;17.80;99.90;;;;;;5058460;28;19939;-61
2022/03/05 03:30:03;;;;;;;;;;;17.70;99.90;;;;;;5047621;28;19944;-61
2022/03/05 03:32:30;;;;;;;;;;;17.70;99.90;;;;;;5058975;28;19943;-63
2022/03/05 03:34:58;;;;;;;;;;;17.70;99.90;;;;;;5048458;28;19933;-64
2022/03/05 03:37:29;;;;;;;;;;;17.70;99.90;;;;;;5058426;28;19928;-62
2022/03/05 03:39:56;;;;;;;;;;;17.70;99.90;;;;;;5050765;28;20408;-63
2022/03/05 03:42:24;;;;;;;;;;;17.70;99.90;;;;;;5041255;28;19929;-64
2022/03/05 03:44:51;;;;;;;;;;;17.70;99.90;;;;;;5085800;28;19929;-61
2022/03/05 03:47:20;;;;;;;;;;;17.70;99.90;;;;;;5049550;28;19932;-62
2022/03/05 03:49:47;;;;;;;;;;;17.70;99.90;;;;;;5048946;28;20293;-64
2022/03/05 03:52:14;;;;;;;;;;;17.70;99.90;;;;;;5054670;28;19977;-65
2022/03/05 03:54:42;;;;;;;;;;;17.70;99.90;;;;;;5044775;28;19925;-64
2022/03/05 03:57:10;;;;;;;;;;;17.70;99.90;;;;;;5049771;28;19929;-62
2022/03/05 03:59:37;;;;;;;;;;;17.60;99.90;;;;;;5055520;28;19925;-63
2022/03/05 04:02:05;;;;;;;;;;;17.60;99.90;;;;;;5057776;28;19936;-63
2022/03/05 04:04:32;;;;;;;;;;;17.60;99.90;;;;;;5049742;28;19929;-62
2022/03/05 04:09:45;;;;;;;;;;;17.60;99.90;;;;;;5042205;28;19929;-62
2022/03/05 04:12:12;;;;;;;;;;;17.60;99.90;;;;;;5050897;28;19932;-62
2022/03/05 04:14:40;;;;;;;;;;;17.60;99.90;;;;;;5050312;28;19929;-62
2022/03/05 04:17:08;;;;;;;;;;;17.60;99.90;;;;;;5058665;28;19929;-61
2022/03/05 04:19:35;;;;;;;;;;;17.60;99.90;;;;;;5053783;28;20524;-62
2022/03/05 04:22:02;;;;;;;;;;;17.60;99.90;;;;;;5057527;28;19962;-63
2022/03/05 04:24:29;;;;;;;;;;;17.60;99.90;;;;;;5051812;28;19936;-62
2022/03/05 04:26:56;;;;;;;;;;;17.60;99.90;;;;;;5061847;28;19932;-60
2022/03/05 04:29:23;;;;;;;;;;;17.60;99.90;;;;;;5058114;28;19933;-63
2022/03/05 04:31:51;;;;;;;;;;;17.60;99.90;;;;;;5041188;28;19925;-62
2022/03/05 04:34:19;;;;;;;;;;;17.60;99.90;;;;;;5054015;28;19936;-61
2022/03/05 04:36:46;;;;;;;;;;;17.50;99.90;;;;;;5054572;28;19925;-62
2022/03/05 04:39:13;;;;;;;;;;;17.60;99.90;;;;;;5066925;28;19925;-62
2022/03/05 04:41:41;;;;;;;;;;;17.60;99.90;;;;;;5061796;28;19947;-65
2022/03/05 04:44:08;;;;;;;;;;;17.50;99.90;;;;;;5071626;28;19933;-63
2022/03/05 04:46:35;;;;;;;;;;;17.60;99.90;;;;;;5061714;28;19929;-62
2022/03/05 04:49:03;;;;;;;;;;;17.50;99.90;;;;;;5054496;28;19959;-63
2022/03/05 04:51:30;;;;;;;;;;;17.50;99.90;;;;;;5053332;28;19933;-64
2022/03/05 04:53:58;;;;;;;;;;;17.60;99.90;;;;;;5053715;28;19925;-63
2022/03/05 04:56:25;;;;;;;;;;;17.60;99.90;;;;;;5054951;28;19947;-63
2022/03/05 04:58:52;;;;;;;;;;;17.60;99.90;;;;;;5052938;28;19940;-64
2022/03/05 05:01:19;;;;;;;;;;;17.70;99.90;;;;;;5051684;28;19943;-64
2022/03/05 05:03:47;;;;;;;;;;;17.90;99.90;;;;;;5048977;28;19987;-64
2022/03/05 05:06:14;;;;;;;;;;;18.10;99.90;;;;;;5050472;28;19967;-63
2022/03/05 05:08:41;;;;;;;;;;;18.20;99.90;;;;;;5053258;28;19928;-61
2022/03/05 05:11:08;;;;;;;;;;;18.40;99.90;;;;;;5047557;28;19935;-62
2022/03/05 05:13:35;;;;;;;;;;;18.50;99.90;;;;;;5053152;28;19937;-63
2022/03/05 05:16:03;;;;;;;;;;;18.50;99.90;;;;;;5047230;28;19936;-63
2022/03/05 05:18:32;;;;;;;;;;;18.60;99.90;;;;;;5043980;28;19936;-63
2022/03/05 05:21:00;;;;;;;;;;;18.80;99.90;;;;;;5040021;28;19936;-63
2022/03/05 05:23:27;;;;;;;;;;;18.90;99.90;;;;;;5040688;28;19929;-63
2022/03/05 05:25:55;;;;;;;;;;;19.00;99.90;;;;;;5042906;28;19936;-65
2022/03/05 05:28:22;;;;;;;;;;;19.10;99.90;;;;;;5047837;28;20682;-64
2022/03/05 05:30:49;;;;;;;;;;;19.20;99.90;;;;;;5042657;28;19951;-64
2022/03/05 05:33:17;;;;;;;;;;;19.40;99.90;;;;;;5040055;28;19944;-65
2022/03/05 05:35:44;;;;;;;;;;;19.50;99.90;;;;;;5038097;28;19936;-64
2022/03/05 05:38:11;;;;;;;;;;;19.70;99.90;;;;;;5043576;28;19944;-64
2022/03/05 05:40:38;;;;;;;;;;;19.90;99.90;;;;;;5042621;28;20427;-63
2022/03/05 05:43:05;;;;;;;;;;;19.90;99.90;;;;;;5044086;28;19952;-64
2022/03/05 05:45:32;;;;;;;;;;;20.00;99.90;;;;;;5049683;28;20309;-60
2022/03/05 05:48:01;;;;;;;;;;;20.10;99.90;;;;;;5049996;28;19929;-63
2022/03/05 05:50:28;;;;;;;;;;;20.20;99.90;;;;;;5046242;28;20478;-62
2022/03/05 05:52:55;;;;;;;;;;;20.30;99.90;;;;;;5049981;28;20403;-63
2022/03/05 05:55:23;;;;;;;;;;;20.40;99.90;;;;;;5049386;28;19928;-64
2022/03/05 05:57:50;;;;;;;;;;;20.50;99.90;;;;;;5048499;28;19936;-62
2022/03/05 06:00:17;;;;;;;;;;;20.50;99.90;;;;;;5047325;28;20331;-63
2022/03/05 06:02:44;;;;;;;;;;;20.60;99.90;;;;;;5041676;28;20408;-64
2022/03/05 06:05:11;;;;;;;;;;;20.60;99.90;;;;;;5048237;28;19929;-62
2022/03/05 06:07:38;;;;;;;;;;;20.60;99.90;;;;;;5047897;28;19928;-61
2022/03/05 06:10:07;;;;;;;;;;;20.70;99.90;;;;;;5048722;28;19929;-61
2022/03/05 06:12:34;;;;;;;;;;;20.70;99.90;;;;;;5043021;28;19929;-61
2022/03/05 06:15:02;;;;;;;;;;;20.70;99.90;;;;;;5045059;28;20327;-61
2022/03/05 06:17:29;;;;;;;;;;;20.70;99.90;;;;;;5026082;28;19929;-60
2022/03/05 06:19:56;;;;;;;;;;;20.70;99.90;;;;;;5037416;28;19929;-61
2022/03/05 06:22:23;;;;;;;;;;;20.80;99.90;;;;;;5035700;28;19940;-60
2022/03/05 06:24:50;;;;;;;;;;;20.80;99.90;;;;;;5049409;28;19937;-61
2022/03/05 06:27:18;;;;;;;;;;;20.80;99.90;;;;;;5048745;28;20347;-60
2022/03/05 06:29:45;;;;;;;;;;;20.90;99.90;;;;;;5045400;28;19929;-62
2022/03/05 06:32:12;;;;;;;;;;;20.80;99.90;;;;;;5042052;28;19925;-59
2022/03/05 06:34:39;;;;;;;;;;;20.80;99.90;;;;;;5043608;28;20348;-63
2022/03/05 06:37:06;;;;;;;;;;;20.80;99.90;;;;;;5044536;28;19955;-61
2022/03/05 06:39:33;;;;;;;;;;;20.70;99.90;;;;;;5045002;28;19929;-62
2022/03/05 06:42:01;;;;;;;;;;;20.70;99.90;;;;;;5047017;28;19959;-62
2022/03/05 06:44:32;;;;;;;;;;;20.70;99.90;;;;;;5048000;28;19991;-68
2022/03/05 06:46:59;;;;;;;;;;;20.60;99.90;;;;;;5050004;28;19932;-65
2022/03/05 06:49:27;;;;;;;;;;;20.60;99.90;;;;;;5042197;28;20341;-65
2022/03/05 06:51:54;;;;;;;;;;;20.60;99.90;;;;;;5044716;28;19924;-65
2022/03/05 06:54:21;;;;;;;;;;;20.50;99.90;;;;;;5030713;28;19950;-65
2022/03/05 06:56:48;;;;;;;;;;;20.50;99.90;;;;;;5041461;28;19933;-66
2022/03/05 06:59:15;;;;;;;;;;;20.40;99.90;;;;;;5042700;28;20411;-65
2022/03/05 07:01:43;;;;;;;;;;;20.40;99.90;;;;;;5072606;28;20305;-67
2022/03/05 07:04:10;;;;;;;;;;;20.30;99.90;;;;;;5041091;28;19944;-63
2022/03/05 07:06:37;;;;;;;;;;;20.30;99.90;;;;;;5038187;28;19940;-63
2022/03/05 07:09:05;;;;;;;;;;;20.30;99.90;;;;;;5044841;28;19963;-63
2022/03/05 07:11:32;;;;;;;;;;;20.30;99.90;;;;;;5045438;28;20324;-65
2022/03/05 07:13:59;;;;;;;;;;;20.30;99.90;;;;;;5045410;28;19948;-61
2022/03/05 07:16:26;;;;;;;;;;;20.20;99.90;;;;;;5038289;28;19936;-62
2022/03/05 07:18:54;;;;;;;;;;;20.20;99.90;;;;;;5042064;28;19932;-64
2022/03/05 07:21:21;;;;;;;;;;;20.10;99.90;;;;;;5040440;28;19928;-65
2022/03/05 07:23:48;;;;;;;;;;;20.20;99.90;;;;;;5038234;28;19944;-64
2022/03/05 07:26:18;;;;;;;;;;;20.10;99.90;;;;;;5044386;28;20467;-63
2022/03/05 07:28:45;;;;;;;;;;;20.20;99.90;;;;;;5042763;28;19928;-63
2022/03/05 07:31:12;;;;;;;;;;;20.20;99.90;;;;;;5040421;28;20384;-63
2022/03/05 07:33:40;;;;;;;;;;;20.30;99.90;;;;;;5043556;28;20280;-61
2022/03/05 07:36:07;;;;;;;;;;;20.40;99.90;;;;;;5044321;28;19940;-64
2022/03/05 07:38:34;;;;;;;;;;;20.60;99.90;;;;;;5054352;28;19925;-61
2022/03/05 07:41:01;;;;;;;;;;;20.70;99.90;;;;;;5039075;28;19925;-64
2022/03/05 07:43:28;;;;;;;;;;;20.70;99.90;;;;;;5044808;28;19940;-63
2022/03/05 07:45:55;;;;;;;;;;;20.80;99.90;;;;;;5051711;28;20407;-59
2022/03/05 07:48:23;;;;;;;;;;;20.80;99.90;;;;;;5040706;28;20300;-59
2022/03/05 07:50:51;;;;;;;;;;;20.90;99.90;;;;;;5039956;28;19935;-61
2022/03/05 07:53:18;;;;;;;;;;;21.00;99.90;;;;;;5043724;28;19940;-61
2022/03/05 07:55:46;;;;;;;;;;;20.80;97.60;;;;;;5033817;28;19933;-60
2022/03/05 07:58:13;;;;;;;;;;;20.60;96.30;;;;;;5031477;28;19925;-62
2022/03/05 08:00:40;;;;;;;;;;;20.70;96.40;;;;;;5043315;28;20039;-62
2022/03/05 08:03:08;;;;;;;;;;;20.80;97.00;;;;;;5043663;28;19925;-63
2022/03/05 08:05:35;;;;;;;;;;;20.80;97.50;;;;;;5045022;28;19928;-64
2022/03/05 08:08:02;;;;;;;;;;;20.90;97.90;;;;;;5049622;28;19929;-61
2022/03/05 08:10:30;;;;;;;;;;;20.80;98.20;;;;;;5041120;28;20402;-60
2022/03/05 08:12:57;;;;;;;;;;;20.80;98.70;;;;;;5036639;28;19928;-60
2022/03/05 08:15:24;;;;;;;;;;;20.70;98.90;;;;;;5040654;28;19924;-60
2022/03/05 08:17:53;;;;;;;;;;;20.70;99.30;;;;;;5043480;28;20407;-61
2022/03/05 08:20:21;;;;;;;;;;;20.70;99.50;;;;;;5039360;28;19929;-61
2022/03/05 08:22:48;;;;;;;;;;;20.70;99.70;;;;;;5044080;28;19933;-62
2022/03/05 08:25:15;;;;;;;;;;;20.70;99.90;;;;;;5036697;28;20689;-61
2022/03/05 08:27:42;;;;;;;;;;;20.70;99.90;;;;;;5041673;28;19925;-61
2022/03/05 08:30:10;;;;;;;;;;;20.70;99.90;;;;;;5043066;28;19948;-60
2022/03/05 08:32:38;;;;;;;;;;;20.60;99.90;;;;;;5045206;28;19932;-61
2022/03/05 08:35:06;;;;;;;;;;;20.60;99.90;;;;;;5049912;28;19936;-61
2022/03/05 08:37:33;;;;;;;;;;;20.60;99.90;;;;;;5049265;28;19924;-62
2022/03/05 08:40:01;;;;;;;;;;;20.60;99.90;;;;;;5046911;28;19956;-64
2022/03/05 08:42:28;;;;;;;;;;;20.60;99.90;;;;;;5046083;28;19925;-61
2022/03/05 08:44:55;;;;;;;;;;;20.60;99.90;;;;;;5047582;28;20375;-61
2022/03/05 08:47:22;;;;;;;;;;;20.60;99.90;;;;;;5042789;28;20312;-60
2022/03/05 08:49:50;;;;;;;;;;;20.60;99.90;;;;;;5048472;28;19955;-58
2022/03/05 08:52:17;;;;;;;;;;;20.50;99.90;;;;;;5053460;28;19924;-61
2022/03/05 08:54:44;;;;;;;;;;;20.50;99.90;;;;;;5049234;28;19929;-61
2022/03/05 08:57:11;;;;;;;;;;;20.50;99.90;;;;;;5051418;28;19929;-61
2022/03/05 08:59:39;;;;;;;;;;;20.60;99.90;;;;;;5048091;28;20352;-63
2022/03/05 09:02:06;;;;;;;;;;;20.80;99.90;;;;;;5049915;28;20324;-62
2022/03/05 09:04:34;;;;;;;;;;;20.90;99.90;;;;;;5046870;28;20024;-61
2022/03/05 09:07:01;;;;;;;;;;;21.00;99.90;;;;;;5043853;28;20707;-62
2022/03/05 09:09:28;;;;;;;;;;;21.10;99.90;;;;;;5042511;28;19941;-62
2022/03/05 09:11:56;;;;;;;;;;;21.30;99.90;;;;;;5042111;28;19936;-63
2022/03/05 09:14:23;;;;;;;;;;;21.30;99.90;;;;;;5045512;28;20024;-62
2022/03/05 09:16:50;;;;;;;;;;;21.40;99.90;;;;;;5047572;28;19948;-63
2022/03/05 09:19:17;;;;;;;;;;;21.40;99.90;;;;;;5041058;28;19935;-63
2022/03/05 09:21:44;;;;;;;;;;;21.40;99.90;;;;;;5039720;28;19928;-66
2022/03/05 09:24:11;;;;;;;;;;;21.40;99.90;;;;;;5043842;28;19929;-63
2022/03/05 09:26:38;;;;;;;;;;;21.40;99.90;;;;;;5059268;28;19932;-62
2022/03/05 09:29:06;;;;;;;;;;;21.40;99.90;;;;;;5072284;28;19929;-56
2022/03/05 09:31:33;;;;;;;;;;;21.40;99.90;;;;;;5031393;28;19925;-63
2022/03/05 09:34:01;;;;;;;;;;;21.30;99.90;;;;;;5043515;28;19935;-64
2022/03/05 09:36:28;;;;;;;;;;;21.30;99.90;;;;;;5051556;28;19944;-62
2022/03/05 09:38:55;;;;;;;;;;;21.20;99.90;;;;;;5037187;28;19940;-63
2022/03/05 09:41:22;;;;;;;;;;;21.20;99.90;;;;;;5037643;28;20032;-60
2022/03/05 09:43:50;;;;;;;;;;;21.20;99.90;;;;;;5041930;28;20375;-58
2022/03/05 09:46:19;;;;;;;;;;;21.10;99.90;;;;;;5045331;28;20293;-64
2022/03/05 09:48:48;;;;;;;;;;;21.10;99.90;;;;;;5076866;28;19929;-64
2022/03/05 09:51:15;;;;;;;;;;;21.00;99.90;;;;;;5045643;28;19932;-62
2022/03/05 09:53:43;;;;;;;;;;;21.00;99.90;;;;;;5045810;28;20300;-63
2022/03/05 09:56:10;;;;;;;;;;;21.00;99.90;;;;;;5046224;28;19929;-61
2022/03/05 09:58:46;;;;;;;;;;;21.00;99.90;;;;;;5043500;28;19940;-62
2022/03/05 10:01:14;;;;;;;;;;;20.90;99.90;;;;;;5036544;28;20312;-62
2022/03/05 10:03:48;;;;;;;;;;;20.90;99.90;;;;;;5045204;28;20417;-60
2022/03/05 10:06:19;;;;;;;;;;;20.80;99.90;;;;;;5045031;28;19943;-60
2022/03/05 10:08:47;;;;;;;;;;;20.80;99.90;;;;;;5047817;28;19925;-61
2022/03/05 10:11:14;;;;;;;;;;;20.80;99.90;;;;;;5038646;28;20230;-62
2022/03/05 10:13:42;;;;;;;;;;;20.80;99.90;;;;;;5044764;28;19929;-61
2022/03/05 10:16:29;;;;;;;;;;;20.80;99.90;;;;;;5044214;28;19943;-61
2022/03/05 10:18:57;;;;;;;;;;;20.80;99.90;;;;;;5042509;28;19928;-61
2022/03/05 10:21:31;;;;;;;;;;;20.70;99.90;;;;;;5044292;28;19933;-62
2022/03/05 10:24:06;;;;;;;;;;;20.70;99.90;;;;;;5043341;28;19940;-63
2022/03/05 10:26:54;;;;;;;;;;;20.70;99.90;;;;;;5042413;28;19928;-62
2022/03/05 10:29:23;;;;;;;;;;;20.60;99.90;;;;;;5043693;28;19925;-61
2022/03/05 10:32:03;;;;;;;;;;;20.60;99.90;;;;;;5037803;28;20397;-60
2022/03/05 10:34:48;;;;;;;;;;;20.50;99.90;;;;;;5044507;28;19925;-62
2022/03/05 10:37:15;;;;;;;;;;;20.50;99.90;;;;;;5043726;28;20492;-60
2022/03/05 10:39:43;;;;;;;;;;;20.50;99.90;;;;;;5045380;28;20365;-59
2022/03/05 10:42:21;;;;;;;;;;;20.50;99.90;;;;;;5038357;28;19970;-63
2022/03/05 10:44:59;;;;;;;;;;;20.40;99.90;;;;;;5041193;28;19929;-62
2022/03/05 10:47:35;;;;;;;;;;;20.50;99.90;;;;;;5042749;28;19929;-58
2022/03/05 10:50:05;;;;;;;;;;;20.60;99.90;;;;;;5046156;28;19936;-60
2022/03/05 10:52:45;;;;;;;;;;;20.70;99.90;;;;;;5042620;28;20254;-60
2022/03/05 10:55:16;;;;;;;;;;;20.70;97.40;;;;;;5031044;28;19962;-58
2022/03/05 10:58:01;;;;;;;;;;;20.90;97.10;;;;;;5028820;28;20055;-61
2022/03/05 11:00:28;;;;;;;;;;;20.90;97.10;;;;;;5037527;28;19935;-60
2022/03/05 11:02:57;;;;;;;;;;;21.00;97.30;;;;;;5027897;28;19936;-59
2022/03/05 11:05:25;;;;;;;;;;;20.90;97.30;;;;;;5042672;28;19936;-62
2022/03/05 11:07:53;;;;;;;;;;;20.90;97.30;;;;;;5043264;28;19925;-59
2022/03/05 11:10:23;;;;;;;;;;;21.00;97.30;;;;;;5028336;28;19933;-58
2022/03/05 11:12:56;;;;;;;;;;;21.00;97.30;;;;;;5027928;28;19937;-59
2022/03/05 11:15:23;;;;;;;;;;;21.00;97.40;;;;;;5037222;28;20381;-62
2022/03/05 11:17:51;;;;;;;;;;;21.00;97.40;;;;;;5040621;28;19936;-61
2022/03/05 11:20:18;;;;;;;;;;;21.00;97.30;;;;;;5045700;28;19940;-60
2022/03/05 11:22:49;;;;;;;;;;;21.10;97.20;;;;;;5030655;28;19929;-62
2022/03/05 11:25:18;;;;;;;;;;;21.10;97.20;;;;;;5038294;28;19944;-58
2022/03/05 11:27:54;;;;;;;;;;;21.10;97.10;;;;;;5038111;28;19948;-62
2022/03/05 11:30:22;;;;;;;;;;;21.10;97.00;;;;;;5036996;28;19929;-61
2022/03/05 11:32:49;;;;;;;;;;;21.10;97.00;;;;;;5043843;28;19932;-61
2022/03/05 11:35:21;;;;;;;;;;;21.00;97.00;;;;;;5048575;28;19929;-62
2022/03/05 11:37:50;;;;;;;;;;;21.00;96.90;;;;;;5081196;28;19928;-61
2022/03/05 11:40:31;;;;;;;;;;;21.00;96.90;;;;;;5032244;28;19929;-61
2022/03/05 11:43:17;;;;;;;;;;;20.90;96.80;;;;;;5039768;28;19929;-62
2022/03/05 11:45:55;;;;;;;;;;;20.90;96.80;;;;;;5037145;28;19936;-60
2022/03/05 11:48:22;;;;;;;;;;;20.90;96.80;;;;;;5033406;28;19925;-60
2022/03/05 11:50:50;;;;;;;;;;;20.80;96.70;;;;;;5049804;28;20348;-61
2022/03/05 11:53:17;;;;;;;;;;;20.80;96.70;;;;;;5047667;28;19929;-62
2022/03/05 11:55:45;;;;;;;;;;;20.80;96.70;;;;;;5045043;28;20341;-63
2022/03/05 11:58:13;;;;;;;;;;;20.70;96.70;;;;;;5036707;28;19929;-58
2022/03/05 12:00:51;;;;;;;;;;;20.60;96.60;;;;;;5040981;28;19944;-63
2022/03/05 12:03:22;;;;;;;;;;;20.60;96.70;;;;;;5045360;28;20031;-61
2022/03/05 12:05:51;;;;;;;;;;;20.60;96.50;;;;;;5046959;28;19929;-62
2022/03/05 12:08:21;;;;;;;;;;;20.60;96.50;;;;;;5036324;28;21418;-61
2022/03/05 12:11:07;;;;;;;;;;;20.50;96.50;;;;;;5041131;28;19925;-62
2022/03/05 12:13:39;;;;;;;;;;;20.50;96.50;;;;;;5048295;28;20008;-61
2022/03/05 12:16:19;;;;;;;;;;;20.50;96.40;;;;;;5035248;28;19929;-62
2022/03/05 12:18:48;;;;;;;;;;;20.40;96.40;;;;;;5035303;28;20390;-59
2022/03/05 12:21:34;;;;;;;;;;;20.40;96.30;;;;;;5035151;28;19944;-64
2022/03/05 12:24:01;;;;;;;;;;;20.40;96.20;;;;;;5042110;28;19924;-59
2022/03/05 12:26:49;;;;;;;;;;;20.50;96.10;;;;;;5044296;28;20495;-59
2022/03/05 12:29:16;;;;;;;;;;;20.60;95.90;;;;;;5030691;28;20393;-59
2022/03/05 12:31:44;;;;;;;;;;;20.80;95.80;;;;;;5041263;28;19959;-62
2022/03/05 12:34:12;;;;;;;;;;;20.90;95.50;;;;;;5050834;28;20254;-59
2022/03/05 12:36:45;;;;;;;;;;;21.00;95.30;;;;;;5040267;28;20415;-62
2022/03/05 12:39:14;;;;;;;;;;;21.10;95.10;;;;;;5031092;28;19925;-62
2022/03/05 12:41:42;;;;;;;;;;;21.10;94.90;;;;;;5042081;28;19929;-63
2022/03/05 12:44:11;;;;;;;;;;;21.20;94.80;;;;;;5035033;28;19929;-61
2022/03/05 12:46:38;;;;;;;;;;;21.30;94.70;;;;;;5041091;28;19928;-61
2022/03/05 12:49:06;;;;;;;;;;;21.30;94.60;;;;;;5045394;28;19929;-62
2022/03/05 12:51:34;;;;;;;;;;;21.30;94.40;;;;;;5046338;28;19943;-61
2022/03/05 12:54:02;;;;;;;;;;;21.40;94.30;;;;;;5049830;28;19928;-61
2022/03/05 12:56:29;;;;;;;;;;;21.40;94.30;;;;;;5041886;28;19941;-60
2022/03/05 12:58:58;;;;;;;;;;;21.40;94.20;;;;;;5038274;28;19925;-62
2022/03/05 13:01:26;;;;;;;;;;;21.30;94.20;;;;;;5045322;28;20429;-58
2022/03/05 13:03:54;;;;;;;;;;;21.30;94.20;;;;;;5044274;28;19936;-58
2022/03/05 13:06:21;;;;;;;;;;;21.30;94.10;;;;;;5034183;28;19928;-59
2022/03/05 13:08:49;;;;;;;;;;;21.30;94.10;;;;;;5034765;28;20380;-62
2022/03/05 13:11:17;;;;;;;;;;;21.20;94.10;;;;;;5051202;28;19936;-67
2022/03/05 13:13:51;;;;;;;;;;;21.10;94.10;;;;;;5044828;28;19925;-63
2022/03/05 13:16:19;;;;;;;;;;;21.10;94.00;;;;;;5050425;28;19924;-61
2022/03/05 13:18:57;;;;;;;;;;;21.10;93.90;;;;;;5053187;28;19929;-63
2022/03/05 13:21:24;;;;;;;;;;;21.10;94.10;;;;;;5032386;28;20392;-63
2022/03/05 13:23:51;;;;;;;;;;;21.10;93.90;;;;;;5049006;28;19925;-58
2022/03/05 13:26:19;;;;;;;;;;;20.90;93.80;;;;;;5038731;28;19932;-58
2022/03/05 13:28:46;;;;;;;;;;;20.90;93.80;;;;;;5043490;28;19955;-61
2022/03/05 13:31:13;;;;;;;;;;;21.00;93.80;;;;;;5034637;28;19925;-63
2022/03/05 13:33:43;;;;;;;;;;;20.90;93.70;;;;;;5030072;28;20404;-59
2022/03/05 13:36:11;;;;;;;;;;;20.90;93.70;;;;;;5037380;28;20311;-62
2022/03/05 13:38:39;;;;;;;;;;;20.80;93.70;;;;;;5030241;28;19952;-61
2022/03/05 13:41:08;;;;;;;;;;;20.80;93.70;;;;;;5034978;28;19948;-60
2022/03/05 13:43:36;;;;;;;;;;;20.80;93.60;;;;;;5028716;28;20419;-62
2022/03/05 13:46:07;;;;;;;;;;;20.80;93.70;;;;;;5049073;28;20095;-62
2022/03/05 13:48:41;;;;;;;;;;;20.90;93.50;;;;;;5039822;28;19952;-61
2022/03/05 13:51:13;;;;;;;;;;;21.00;93.40;;;;;;5030927;28;19940;-64
2022/03/05 13:53:44;;;;;;;;;;;21.10;93.20;;;;;;5042068;28;20385;-60
2022/03/05 13:56:13;;;;;;;;;;;21.20;92.90;;;;;;5036555;28;19933;-60
2022/03/05 13:58:41;;;;;;;;;;;21.30;92.70;;;;;;5029113;28;20423;-63
2022/03/05 14:01:34;;;;;;;;;;;21.40;92.50;;;;;;5041648;28;19944;-60
2022/03/05 14:04:11;;;;;;;;;;;21.50;92.40;;;;;;5027050;28;19929;-61
2022/03/05 14:06:47;;;;;;;;;;;21.50;92.30;;;;;;5041080;28;19929;-63
2022/03/05 14:09:22;;;;;;;;;;;21.60;92.20;;;;;;5028846;28;19936;-61
2022/03/05 14:12:08;;;;;;;;;;;21.60;92.10;;;;;;5037912;28;19924;-59
2022/03/05 14:14:41;;;;;;;;;;;21.50;92.10;;;;;;5039789;28;20317;-59
2022/03/05 14:17:09;;;;;;;;;;;21.50;92.10;;;;;;5046383;28;20359;-61
2022/03/05 14:19:36;;;;;;;;;;;21.40;92.10;;;;;;5034222;28;19925;-61
2022/03/05 14:22:08;;;;;;;;;;;21.40;92.10;;;;;;5034367;28;19948;-62
2022/03/05 14:24:36;;;;;;;;;;;21.30;92.00;;;;;;5032488;28;20317;-59
2022/03/05 14:27:07;;;;;;;;;;;21.30;92.00;;;;;;5042903;28;20281;-63